createdAt,value
2017-07-01T00:01:46.168Z,68.87
2017-07-01T00:04:12.128Z,68.70
2017-07-01T00:06:38.009Z,68.74
2017-07-01T00:09:03.912Z,68.68
2017-07-01T00:11:29.909Z,68.62
2017-07-01T00:13:55.868Z,69.04
2017-07-01T00:16:21.751Z,68.63
2017-07-01T00:18:47.609Z,68.98
2017-07-01T00:21:13.547Z,69.42
2017-07-01T00:23:39.396Z,68.90
2017-07-01T00:26:05.274Z,68.76
2017-07-01T00:28:31.239Z,69.12
2017-07-01T00:30:57.071Z,69.88
2017-07-01T00:33:23.016Z,70.09
2017-07-01T00:35:49.476Z,70.32
2017-07-01T00:38:15.324Z,69.93
2017-07-01T00:40:41.206Z,69.99
2017-07-01T00:43:07.111Z,70.48
2017-07-01T00:45:33.003Z,71.08
2017-07-01T00:47:59.062Z,71.29
2017-07-01T00:50:24.974Z,72.05
2017-07-01T00:52:50.865Z,72.05
2017-07-01T00:55:16.858Z,71.94
2017-07-01T00:57:42.744Z,71.98
2017-07-01T01:00:08.695Z,71.90
2017-07-01T01:02:34.549Z,72.00
2017-07-01T01:05:00.444Z,72.09
2017-07-01T01:07:26.311Z,71.76
2017-07-01T01:09:52.199Z,72.00
2017-07-01T01:12:18.039Z,71.99
2017-07-01T01:14:43.868Z,72.22
2017-07-01T01:17:09.843Z,72.65
2017-07-01T01:19:35.705Z,72.51
2017-07-01T01:22:01.543Z,72.32
2017-07-01T01:24:27.518Z,72.65
2017-07-01T01:26:53.616Z,72.61
2017-07-01T01:29:19.518Z,72.83
2017-07-01T01:31:45.414Z,72.63
2017-07-01T01:34:11.287Z,73.24
2017-07-01T01:36:37.168Z,73.44
2017-07-01T01:39:03.046Z,73.74
2017-07-01T01:41:28.904Z,74.38
2017-07-01T01:43:54.841Z,74.78
2017-07-01T01:46:20.752Z,75.89
2017-07-01T01:48:46.669Z,75.63
2017-07-01T01:51:12.565Z,75.86
2017-07-01T01:53:38.416Z,76.41
2017-07-01T01:56:04.409Z,76.63
2017-07-01T01:58:30.464Z,77.75
2017-07-01T02:00:56.389Z,78.50
2017-07-01T02:03:22.307Z,77.58
2017-07-01T02:05:48.263Z,77.54
2017-07-01T02:08:14.127Z,77.74
2017-07-01T02:10:40.129Z,78.02
2017-07-01T02:13:06.236Z,78.52
2017-07-01T02:15:32.143Z,78.60
2017-07-01T02:18:00.920Z,78.33
2017-07-01T02:20:37.039Z,79.70
2017-07-01T02:23:02.906Z,79.35
2017-07-01T02:25:32.544Z,79.47
2017-07-01T02:27:58.542Z,79.84
2017-07-01T02:30:24.488Z,79.90
2017-07-01T02:33:09.191Z,80.12
2017-07-01T02:35:35.154Z,80.17
2017-07-01T02:38:00.997Z,80.38
2017-07-01T02:40:26.869Z,80.74
2017-07-01T02:42:52.860Z,81.22
2017-07-01T02:45:24.588Z,80.72
2017-07-01T02:47:54.288Z,81.22
2017-07-01T02:50:23.232Z,81.16
2017-07-01T02:52:59.937Z,81.53
2017-07-01T02:58:32.577Z,81.08
2017-07-01T03:00:58.479Z,80.50
2017-07-01T03:03:24.552Z,79.96
2017-07-01T03:05:50.575Z,79.98
2017-07-01T03:08:16.557Z,79.62
2017-07-01T03:10:42.424Z,80.12
2017-07-01T03:13:08.389Z,81.27
2017-07-01T03:15:34.319Z,81.44
2017-07-01T03:18:03.899Z,82.42
2017-07-01T03:20:29.791Z,83.15
2017-07-01T03:23:12.455Z,84.13
2017-07-01T03:25:38.371Z,85.39
2017-07-01T03:28:04.221Z,85.78
2017-07-01T03:30:30.086Z,86.27
2017-07-01T03:32:56.094Z,86.91
2017-07-01T03:35:21.993Z,87.37
2017-07-01T03:38:10.942Z,88.23
2017-07-01T03:40:41.594Z,89.14
2017-07-01T03:43:20.453Z,88.14
2017-07-01T03:45:50.986Z,89.17
2017-07-01T03:48:16.841Z,88.49
2017-07-01T03:50:43.687Z,88.16
2017-07-01T03:53:30.469Z,86.97
2017-07-01T03:55:56.357Z,85.82
2017-07-01T03:58:22.232Z,85.53
2017-07-01T04:00:48.095Z,86.55
2017-07-01T04:03:14.005Z,85.75
2017-07-01T04:05:40.105Z,85.40
2017-07-01T04:08:05.951Z,85.92
2017-07-01T04:10:31.882Z,85.87
2017-07-01T04:12:57.756Z,85.42
2017-07-01T04:15:23.593Z,85.11
2017-07-01T04:17:49.506Z,85.74
2017-07-01T04:20:18.185Z,85.39
2017-07-01T04:22:45.815Z,85.50
2017-07-01T04:25:11.717Z,85.55
2017-07-01T04:27:37.594Z,85.44
2017-07-01T04:30:03.563Z,85.30
2017-07-01T04:32:29.425Z,85.55
2017-07-01T04:34:55.249Z,84.82
2017-07-01T04:37:21.205Z,84.57
2017-07-01T04:39:47.022Z,85.17
2017-07-01T04:42:13.655Z,85.17
2017-07-01T04:44:39.541Z,84.57
2017-07-01T04:47:05.408Z,84.71
2017-07-01T04:49:32.035Z,83.45
2017-07-01T04:52:02.867Z,83.72
2017-07-01T04:54:38.661Z,83.19
2017-07-01T04:57:31.458Z,82.72
2017-07-01T04:59:59.312Z,82.61
2017-07-01T05:02:25.236Z,81.87
2017-07-01T05:04:51.095Z,81.71
2017-07-01T05:07:42.060Z,82.17
2017-07-01T05:10:14.912Z,82.20
2017-07-01T05:12:43.608Z,80.88
2017-07-01T05:15:14.405Z,80.35
2017-07-01T05:17:40.293Z,80.81
2017-07-01T05:20:08.212Z,80.79
2017-07-01T05:22:55.041Z,80.70
2017-07-01T05:25:28.960Z,80.82
2017-07-01T05:27:54.774Z,81.00
2017-07-01T05:30:26.373Z,81.78
2017-07-01T05:32:52.306Z,79.91
2017-07-01T05:35:18.113Z,79.97
2017-07-01T05:37:43.966Z,79.62
2017-07-01T05:40:09.828Z,79.97
2017-07-01T05:42:42.562Z,79.12
2017-07-01T05:45:08.417Z,79.10
2017-07-01T05:47:34.275Z,79.39
2017-07-01T05:50:00.156Z,78.77
2017-07-01T05:52:25.997Z,78.37
2017-07-01T05:54:51.868Z,78.21
2017-07-01T05:57:17.679Z,77.47
2017-07-01T05:59:43.542Z,76.54
2017-07-01T06:02:19.409Z,76.08
2017-07-01T06:04:45.349Z,76.80
2017-07-01T06:07:11.217Z,77.32
2017-07-01T06:09:58.229Z,77.39
2017-07-01T06:12:31.889Z,76.61
2017-07-01T06:14:59.614Z,76.13
2017-07-01T06:17:30.273Z,75.28
2017-07-01T06:19:56.133Z,74.53
2017-07-01T06:22:28.747Z,74.78
2017-07-01T06:24:54.657Z,72.90
2017-07-01T06:27:30.490Z,72.11
2017-07-01T06:30:03.671Z,69.62
2017-07-01T06:32:31.570Z,70.44
2017-07-01T06:35:25.565Z,70.41
2017-07-01T06:41:28.253Z,70.46
2017-07-01T06:44:18.725Z,69.81
2017-07-01T06:46:56.379Z,70.04
2017-07-01T06:49:22.414Z,70.03
2017-07-01T06:51:48.420Z,69.59
2017-07-01T06:54:18.164Z,69.04
2017-07-01T06:56:44.021Z,68.12
2017-07-01T06:59:09.977Z,67.72
2017-07-01T07:01:35.836Z,66.24
2017-07-01T07:04:01.769Z,65.13
2017-07-01T07:06:27.655Z,65.17
2017-07-01T07:08:53.534Z,63.98
2017-07-01T07:11:19.499Z,63.68
2017-07-01T07:13:45.425Z,61.90
2017-07-01T07:16:11.284Z,62.21
2017-07-01T07:18:37.350Z,63.11
2017-07-01T07:21:03.242Z,61.74
2017-07-01T07:23:29.182Z,60.78
2017-07-01T07:25:55.239Z,60.14
2017-07-01T07:28:21.042Z,60.54
2017-07-01T07:30:46.977Z,61.93
2017-07-01T07:33:12.860Z,62.01
2017-07-01T07:35:38.725Z,62.17
2017-07-01T07:38:04.691Z,61.97
2017-07-01T07:40:30.718Z,61.71
2017-07-01T07:42:56.749Z,61.68
2017-07-01T07:45:22.646Z,62.41
2017-07-01T07:47:49.605Z,61.68
2017-07-01T07:50:15.515Z,61.22
2017-07-01T07:52:41.414Z,60.82
2017-07-01T07:55:07.262Z,60.77
2017-07-01T07:57:33.105Z,61.12
2017-07-01T07:59:58.938Z,60.09
2017-07-01T08:02:24.853Z,60.32
2017-07-01T08:04:50.752Z,60.50
2017-07-01T08:07:16.726Z,60.79
2017-07-01T08:09:42.796Z,60.46
2017-07-01T08:12:08.807Z,60.17
2017-07-01T08:14:34.693Z,59.70
2017-07-01T08:17:00.582Z,58.64
2017-07-01T08:19:26.461Z,58.43
2017-07-01T08:21:52.299Z,57.26
2017-07-01T08:24:18.320Z,57.22
2017-07-01T08:26:44.231Z,58.03
2017-07-01T08:29:10.169Z,58.00
2017-07-01T08:31:35.984Z,57.73
2017-07-01T08:34:01.891Z,58.47
2017-07-01T08:36:27.754Z,57.64
2017-07-01T08:38:53.608Z,58.56
2017-07-01T08:41:19.482Z,57.62
2017-07-01T08:43:45.369Z,57.13
2017-07-01T08:46:11.241Z,57.89
2017-07-01T08:48:37.100Z,57.29
2017-07-01T08:51:03.008Z,57.12
2017-07-01T08:53:28.869Z,55.29
2017-07-01T08:55:54.676Z,56.00
2017-07-01T08:58:20.587Z,56.23
2017-07-01T09:00:46.425Z,56.18
2017-07-01T09:03:12.363Z,56.70
2017-07-01T09:05:38.192Z,57.47
2017-07-01T09:08:04.011Z,56.86
2017-07-01T09:10:29.873Z,57.00
2017-07-01T09:12:55.710Z,57.52
2017-07-01T09:15:21.588Z,58.43
2017-07-01T09:17:47.449Z,58.24
2017-07-01T09:20:13.269Z,58.76
2017-07-01T09:22:39.103Z,58.72
2017-07-01T09:25:04.948Z,58.58
2017-07-01T09:27:30.841Z,57.76
2017-07-01T09:29:56.826Z,58.40
2017-07-01T09:32:22.645Z,57.50
2017-07-01T09:34:48.690Z,56.47
2017-07-01T09:37:14.641Z,57.48
2017-07-01T09:39:40.457Z,56.17
2017-07-01T09:42:06.357Z,57.02
2017-07-01T09:44:39.261Z,56.60
2017-07-01T09:47:05.122Z,56.69
2017-07-01T09:49:30.991Z,57.32
2017-07-01T09:51:56.929Z,56.18
2017-07-01T09:54:22.772Z,55.43
2017-07-01T09:56:48.582Z,55.33
2017-07-01T09:59:14.430Z,55.06
2017-07-01T10:01:40.283Z,55.01
2017-07-01T10:04:06.113Z,56.35
2017-07-01T10:06:32.261Z,56.33
2017-07-01T10:08:58.070Z,56.63
2017-07-01T10:11:23.944Z,56.95
2017-07-01T10:13:49.801Z,55.54
2017-07-01T10:16:15.719Z,55.94
2017-07-01T10:18:41.598Z,55.81
2017-07-01T10:21:07.456Z,55.13
2017-07-01T10:23:33.427Z,54.73
2017-07-01T10:25:59.322Z,55.93
2017-07-01T10:28:25.206Z,54.24
2017-07-01T10:30:51.028Z,55.58
2017-07-01T10:33:17.455Z,55.93
2017-07-01T10:35:43.347Z,56.24
2017-07-01T10:38:09.420Z,55.71
2017-07-01T10:40:35.237Z,54.74
2017-07-01T10:43:01.239Z,55.55
2017-07-01T10:45:27.159Z,55.31
2017-07-01T10:47:53.003Z,55.62
2017-07-01T10:50:18.864Z,54.93
2017-07-01T10:52:44.777Z,55.68
2017-07-01T10:55:10.643Z,55.07
2017-07-01T10:57:36.475Z,55.78
2017-07-01T11:00:02.387Z,55.49
2017-07-01T11:02:28.289Z,55.60
2017-07-01T11:04:54.188Z,55.67
2017-07-01T11:07:20.152Z,56.34
2017-07-01T11:09:46.023Z,56.91
2017-07-01T11:12:11.869Z,57.03
2017-07-01T11:14:37.694Z,57.60
2017-07-01T11:17:03.729Z,56.99
2017-07-01T11:19:29.638Z,57.91
2017-07-01T11:21:55.451Z,58.17
2017-07-01T11:24:21.420Z,58.70
2017-07-01T11:26:47.297Z,58.40
2017-07-01T11:29:13.233Z,58.94
2017-07-01T11:31:39.253Z,59.63
2017-07-01T11:34:05.162Z,59.90
2017-07-01T11:36:30.989Z,59.06
2017-07-01T11:38:56.833Z,59.16
2017-07-01T11:41:22.705Z,57.74
2017-07-01T11:43:49.342Z,57.90
2017-07-01T11:46:15.161Z,57.34
2017-07-01T11:48:41.016Z,56.66
2017-07-01T11:51:07.018Z,56.19
2017-07-01T11:53:32.937Z,56.18
2017-07-01T11:55:58.892Z,56.37
2017-07-01T11:58:24.849Z,56.96
2017-07-01T12:00:50.699Z,58.41
2017-07-01T12:03:16.697Z,57.68
2017-07-01T12:05:42.519Z,57.77
2017-07-01T12:08:08.367Z,58.35
2017-07-01T12:10:34.280Z,58.21
2017-07-01T12:13:00.130Z,58.65
2017-07-01T12:15:25.949Z,58.61
2017-07-01T12:17:51.833Z,59.12
2017-07-01T12:20:17.686Z,58.42
2017-07-01T12:22:43.485Z,58.28
2017-07-01T12:25:09.305Z,58.22
2017-07-01T12:27:35.128Z,57.96
2017-07-01T12:30:01.231Z,59.29
2017-07-01T12:32:27.076Z,59.86
2017-07-01T12:34:52.909Z,60.19
2017-07-01T12:37:18.770Z,60.31
2017-07-01T12:39:44.601Z,60.56
2017-07-01T12:42:10.636Z,61.13
2017-07-01T12:44:36.689Z,60.92
2017-07-01T12:47:02.499Z,61.58
2017-07-01T12:49:28.475Z,61.23
2017-07-01T12:51:54.516Z,61.25
2017-07-01T12:54:20.358Z,60.21
2017-07-01T12:56:46.327Z,60.52
2017-07-01T12:59:12.137Z,60.39
2017-07-01T13:01:37.985Z,60.10
2017-07-01T13:04:03.848Z,59.34
2017-07-01T13:06:29.736Z,58.60
2017-07-01T13:08:55.581Z,58.56
2017-07-01T13:11:24.305Z,59.28
2017-07-01T13:13:50.130Z,58.98
2017-07-01T13:16:15.990Z,60.32
2017-07-01T13:18:41.909Z,61.02
2017-07-01T13:21:07.778Z,61.01
2017-07-01T13:23:33.634Z,60.84
2017-07-01T13:25:59.630Z,61.48
2017-07-01T13:28:25.485Z,61.44
2017-07-01T13:30:51.295Z,61.59
2017-07-01T13:33:17.113Z,60.75
2017-07-01T13:35:42.946Z,61.33
2017-07-01T13:38:08.865Z,61.56
2017-07-01T13:40:34.709Z,60.36
2017-07-01T13:43:00.567Z,59.85
2017-07-01T13:45:26.373Z,59.98
2017-07-01T13:47:52.208Z,58.83
2017-07-01T13:50:18.060Z,57.57
2017-07-01T13:52:43.996Z,56.87
2017-07-01T13:55:09.837Z,55.95
2017-07-01T13:57:35.733Z,54.24
2017-07-01T14:00:01.658Z,55.50
2017-07-01T14:02:27.508Z,55.28
2017-07-01T14:04:53.360Z,55.13
2017-07-01T14:07:19.168Z,53.27
2017-07-01T14:09:44.973Z,50.54
2017-07-01T14:12:10.820Z,49.29
2017-07-01T14:14:36.618Z,48.62
2017-07-01T14:17:02.456Z,50.68
2017-07-01T14:19:28.291Z,52.56
2017-07-01T14:21:54.106Z,52.39
2017-07-01T14:24:19.906Z,52.15
2017-07-01T14:26:45.890Z,53.63
2017-07-01T14:29:11.708Z,53.30
2017-07-01T14:31:37.515Z,53.46
2017-07-01T14:34:03.342Z,53.17
2017-07-01T14:36:29.227Z,53.94
2017-07-01T14:38:55.166Z,53.92
2017-07-01T14:41:21.004Z,55.23
2017-07-01T14:43:46.888Z,55.30
2017-07-01T14:46:12.862Z,55.55
2017-07-01T14:48:38.702Z,55.44
2017-07-01T14:51:04.497Z,55.43
2017-07-01T14:53:30.347Z,55.08
2017-07-01T14:55:56.177Z,55.59
2017-07-01T14:58:22.865Z,55.27
2017-07-01T15:00:48.797Z,54.72
2017-07-01T15:03:14.611Z,54.77
2017-07-01T15:05:40.412Z,54.88
2017-07-01T15:08:06.264Z,54.93
2017-07-01T15:10:32.081Z,54.73
2017-07-01T15:12:57.897Z,54.12
2017-07-01T15:15:23.740Z,53.90
2017-07-01T15:17:49.580Z,53.87
2017-07-01T15:20:15.505Z,54.30
2017-07-01T15:22:41.345Z,53.96
2017-07-01T15:25:07.135Z,53.82
2017-07-01T15:27:32.930Z,53.79
2017-07-01T15:29:58.905Z,53.76
2017-07-01T15:32:24.883Z,54.16
2017-07-01T15:34:50.723Z,54.69
2017-07-01T15:37:16.706Z,54.62
2017-07-01T15:39:42.565Z,54.46
2017-07-01T15:42:08.531Z,54.46
2017-07-01T15:44:34.334Z,54.52
2017-07-01T15:47:00.221Z,54.91
2017-07-01T15:49:26.196Z,55.77
2017-07-01T15:51:52.028Z,55.98
2017-07-01T15:54:17.893Z,56.25
2017-07-01T15:56:43.912Z,56.12
2017-07-01T15:59:09.893Z,55.74
2017-07-01T16:01:48.073Z,56.56
2017-07-01T16:04:13.945Z,56.29
2017-07-01T16:06:39.801Z,56.24
2017-07-01T16:09:05.701Z,56.62
2017-07-01T16:11:31.614Z,56.40
2017-07-01T16:13:57.445Z,56.93
2017-07-01T16:16:23.243Z,56.92
2017-07-01T16:18:49.176Z,56.97
2017-07-01T16:21:15.086Z,56.88
2017-07-01T16:23:40.913Z,57.55
2017-07-01T16:26:06.760Z,57.97
2017-07-01T16:28:32.571Z,57.81
2017-07-01T16:30:58.434Z,57.76
2017-07-01T16:33:24.270Z,57.89
2017-07-01T16:35:50.105Z,58.49
2017-07-01T16:38:16.020Z,58.57
2017-07-01T16:40:41.912Z,58.63
2017-07-01T16:43:07.750Z,59.27
2017-07-01T16:45:33.551Z,59.08
2017-07-01T16:47:59.396Z,58.86
2017-07-01T16:50:25.406Z,59.22
2017-07-01T16:52:51.290Z,58.61
2017-07-01T16:55:17.130Z,58.94
2017-07-01T16:57:43.076Z,59.35
2017-07-01T17:00:08.921Z,59.68
2017-07-01T17:02:34.824Z,59.88
2017-07-01T17:05:00.658Z,59.89
2017-07-01T17:07:26.477Z,60.16
2017-07-01T17:09:52.333Z,60.36
2017-07-01T17:12:18.173Z,60.49
2017-07-01T17:14:43.969Z,60.76
2017-07-01T17:17:09.851Z,60.81
2017-07-01T17:19:35.695Z,60.89
2017-07-01T17:22:01.572Z,61.09
2017-07-01T17:24:27.417Z,61.12
2017-07-01T17:26:53.317Z,61.54
2017-07-01T17:29:19.249Z,61.84
2017-07-01T17:31:45.109Z,62.03
2017-07-01T17:34:10.986Z,61.62
2017-07-01T17:36:36.823Z,61.93
2017-07-01T17:39:02.780Z,62.16
2017-07-01T17:41:28.624Z,62.29
2017-07-01T17:43:54.469Z,62.24
2017-07-01T17:46:20.418Z,62.25
2017-07-01T17:48:46.237Z,62.58
2017-07-01T17:51:12.104Z,62.18
2017-07-01T17:53:37.907Z,62.71
2017-07-01T17:56:03.706Z,62.72
2017-07-01T17:58:30.457Z,63.59
2017-07-01T18:00:56.333Z,64.28
2017-07-01T18:03:22.194Z,64.36
2017-07-01T18:05:48.052Z,66.31
2017-07-01T18:08:14.019Z,67.78
2017-07-01T18:10:39.814Z,70.62
2017-07-01T18:13:05.713Z,72.81
2017-07-01T18:15:31.544Z,74.55
2017-07-01T18:17:57.382Z,75.27
2017-07-01T18:20:23.323Z,76.27
2017-07-01T18:22:49.148Z,75.88
2017-07-01T18:25:14.976Z,76.20
2017-07-01T18:27:40.770Z,75.97
2017-07-01T18:30:06.620Z,77.61
2017-07-01T18:32:32.473Z,76.11
2017-07-01T18:34:58.380Z,79.07
2017-07-01T18:37:31.232Z,79.40
2017-07-01T18:39:57.070Z,79.51
2017-07-01T18:42:22.924Z,80.54
2017-07-01T18:44:48.775Z,80.53
2017-07-01T18:47:14.644Z,79.95
2017-07-01T18:49:40.485Z,80.80
2017-07-01T18:52:06.290Z,80.95
2017-07-01T18:54:32.130Z,81.38
2017-07-01T18:56:57.941Z,81.82
2017-07-01T18:59:23.819Z,82.93
2017-07-01T19:01:49.888Z,81.35
2017-07-01T19:04:15.785Z,81.49
2017-07-01T19:06:41.601Z,81.76
2017-07-01T19:09:07.550Z,81.67
2017-07-01T19:11:33.349Z,81.33
2017-07-01T19:13:59.258Z,81.10
2017-07-01T19:16:25.116Z,80.16
2017-07-01T19:18:50.928Z,82.44
2017-07-01T19:21:17.856Z,83.00
2017-07-01T19:23:43.855Z,82.02
2017-07-01T19:26:09.720Z,82.92
2017-07-01T19:28:35.704Z,81.71
2017-07-01T19:31:01.625Z,82.60
2017-07-01T19:33:27.479Z,82.09
2017-07-01T19:35:53.278Z,82.78
2017-07-01T19:38:19.121Z,83.24
2017-07-01T19:40:44.945Z,82.78
2017-07-01T19:43:10.777Z,83.65
2017-07-01T19:45:36.647Z,82.44
2017-07-01T19:48:02.663Z,82.69
2017-07-01T19:50:28.607Z,83.36
2017-07-01T19:52:54.520Z,83.10
2017-07-01T19:55:20.546Z,84.23
2017-07-01T19:57:46.599Z,83.72
2017-07-01T20:00:12.622Z,84.63
2017-07-01T20:02:38.516Z,84.80
2017-07-01T20:05:04.352Z,82.51
2017-07-01T20:07:30.227Z,84.03
2017-07-01T20:09:56.060Z,83.49
2017-07-01T20:12:22.028Z,83.65
2017-07-01T20:14:47.903Z,84.42
2017-07-01T20:17:13.824Z,84.03
2017-07-01T20:19:39.751Z,84.57
2017-07-01T20:22:05.587Z,84.28
2017-07-01T20:24:31.628Z,84.11
2017-07-01T20:26:57.521Z,83.34
2017-07-01T20:29:23.400Z,82.59
2017-07-01T20:31:49.436Z,82.62
2017-07-01T20:34:15.507Z,84.11
2017-07-01T20:36:41.496Z,84.23
2017-07-01T20:39:07.542Z,83.62
2017-07-01T20:41:33.457Z,83.67
2017-07-01T20:43:59.319Z,83.76
2017-07-01T20:46:25.168Z,83.05
2017-07-01T20:48:51.008Z,83.74
2017-07-01T20:51:16.940Z,83.17
2017-07-01T20:53:42.887Z,83.69
2017-07-01T20:56:08.784Z,82.59
2017-07-01T20:58:34.707Z,84.18
2017-07-01T21:01:00.727Z,84.53
2017-07-01T21:03:26.645Z,84.70
2017-07-01T21:05:52.568Z,83.54
2017-07-01T21:08:18.602Z,84.58
2017-07-01T21:10:44.489Z,84.50
2017-07-01T21:13:10.424Z,84.13
2017-07-01T21:15:36.264Z,84.64
2017-07-01T21:18:02.155Z,84.64
2017-07-01T21:20:28.075Z,84.75
2017-07-01T21:22:54.025Z,85.17
2017-07-01T21:25:19.888Z,85.74
2017-07-01T21:27:45.853Z,85.77
2017-07-01T21:30:11.685Z,86.26
2017-07-01T21:32:37.611Z,86.04
2017-07-01T21:35:03.476Z,85.99
2017-07-01T21:37:29.336Z,86.49
2017-07-01T21:39:55.172Z,85.36
2017-07-01T21:42:21.040Z,86.39
2017-07-01T21:44:46.882Z,86.36
2017-07-01T21:47:12.824Z,85.82
2017-07-01T21:49:38.704Z,86.62
2017-07-01T21:52:04.531Z,86.03
2017-07-01T21:54:30.371Z,85.08
2017-07-01T21:56:56.247Z,85.33
2017-07-01T21:59:22.129Z,85.29
2017-07-01T22:01:47.953Z,85.93
2017-07-01T22:04:13.768Z,85.68
2017-07-01T22:06:39.645Z,85.26
2017-07-01T22:09:05.535Z,86.43
2017-07-01T22:11:31.405Z,85.18
2017-07-01T22:13:57.309Z,85.57
2017-07-01T22:16:23.295Z,85.15
2017-07-01T22:18:49.142Z,84.54
2017-07-01T22:21:14.992Z,85.60
2017-07-01T22:23:40.960Z,85.09
2017-07-01T22:26:06.815Z,84.78
2017-07-01T22:28:32.832Z,85.52
2017-07-01T22:30:58.868Z,85.87
2017-07-01T22:33:24.871Z,86.14
2017-07-01T22:35:50.747Z,86.16
2017-07-01T22:38:16.648Z,86.93
2017-07-01T22:40:42.476Z,87.30
2017-07-01T22:43:08.341Z,86.67
2017-07-01T22:45:34.194Z,87.61
2017-07-01T22:48:00.124Z,87.33
2017-07-01T22:50:25.991Z,87.68
2017-07-01T22:52:51.861Z,88.18
2017-07-01T22:55:17.758Z,87.39
2017-07-01T22:57:43.699Z,86.89
2017-07-01T23:00:09.625Z,86.85
2017-07-01T23:02:35.772Z,88.06
2017-07-01T23:05:01.781Z,88.01
2017-07-01T23:07:27.679Z,88.47
2017-07-01T23:09:53.551Z,88.55
2017-07-01T23:12:20.321Z,88.30
2017-07-01T23:14:46.183Z,88.59
2017-07-01T23:17:12.038Z,88.59
2017-07-01T23:19:37.947Z,88.76
2017-07-01T23:22:03.813Z,88.65
2017-07-01T23:24:29.659Z,88.22
2017-07-01T23:26:55.512Z,88.79
2017-07-01T23:29:21.491Z,88.93
2017-07-01T23:31:47.355Z,88.18
2017-07-01T23:34:13.196Z,88.96
2017-07-01T23:36:39.079Z,88.95
2017-07-01T23:39:04.966Z,89.33
2017-07-01T23:41:30.796Z,88.61
2017-07-01T23:43:56.653Z,88.76
2017-07-01T23:46:22.484Z,89.13
2017-07-01T23:48:48.347Z,88.67
2017-07-01T23:51:14.283Z,88.38
2017-07-01T23:53:40.161Z,90.00
2017-07-01T23:56:06.172Z,89.84
2017-07-01T23:58:32.066Z,89.42
